Pagina principale
METAR-TAF:

METAR-TAF

Aeroporti :

Lussemburgo, Lussemburgo

Aeroporto del Lussemburgo

latitudine: 49-37N, longitudine: 006-13E, altezza: 376 m

Osservazione

Il bollettino è stato emesso 35 minuti fa, alle 23:20 UTC
Vento 14 kt da est/nord-est
Temperature -3°C
Umidità 54%
Pressione 1015 hPa
Visibilità 10 km o più
nessuna nube inferiore a 1500 m e nessun cumulonembo

METAR: ELLX 232320Z 06014KT CAVOK M03/M11 Q1015 R99/19//55 NOSIG

Ora: 00:55 (23:55 UTC)

Previsione

Il bollettino è stato emesso 55 minuti fa, alle 23:00 UTC
Previsione valida dal 24 alle 00 UTC al 25 alle 06 UTC
Vento 13 kt da est/nord-est
Visibilità 10 km o più
nessuna nube inferiore a 1500 m e nessun cumulonembo
Temporaneamente
dal 24 alle 00 UTC al 25 alle 06 UTC
Vento 18 kt da est/nord-est con raffiche fino a 30 kt

TAF: ELLX 232300Z 2400/2506 06013KT CAVOK TEMPO 2400/2506 06018G30KT

Osservazioni e previsioni meteorologiche di più di 4000 aeroporti (messaggi METAR e TAF).

Le stazioni disponibili sono rappresentate dai dischi gialli e rossi sulla carta.

Puntare il mouse per vedere il nome della stazione.

Clicca sopra per visualizzare le osservazioni e previsioni meteorologiche.

Per cambiare la mappa : fare clic sui pulsanti verdi con una croce nera per ingrandire, il pulsante verde con un trattino per diminuire, o sulla freccia verde per le mappe adiacenti.


METAR-TAF: